createdAt,value
2023-04-30T00:01:31.883Z,29.74
2023-04-30T00:03:59.372Z,30.08
2023-04-30T00:06:28.273Z,30.36
2023-04-30T00:08:56.059Z,30.45
2023-04-30T00:11:23.310Z,29.96
2023-04-30T00:13:50.624Z,30.28
2023-04-30T00:16:18.748Z,29.72
2023-04-30T00:18:46.257Z,29.26
2023-04-30T00:21:13.569Z,29.60
2023-04-30T00:23:40.882Z,29.60
2023-04-30T00:26:07.998Z,29.73
2023-04-30T00:28:36.663Z,29.48
2023-04-30T00:31:06.623Z,29.84
2023-04-30T00:33:33.948Z,30.38
2023-04-30T00:36:01.338Z,30.38
2023-04-30T00:38:28.724Z,30.18
2023-04-30T00:40:56.144Z,30.77
2023-04-30T00:43:23.067Z,30.11
2023-04-30T00:45:50.372Z,30.07
2023-04-30T00:48:17.680Z,30.71
2023-04-30T00:50:45.098Z,30.97
2023-04-30T00:53:12.538Z,31.39
2023-04-30T00:55:41.103Z,31.22
2023-04-30T00:58:08.218Z,31.49
2023-04-30T01:00:35.592Z,31.53
2023-04-30T01:03:02.787Z,31.40
2023-04-30T01:05:30.598Z,30.40
2023-04-30T01:07:58.257Z,30.32
2023-04-30T01:10:28.740Z,30.43
2023-04-30T01:13:04.146Z,29.34
2023-04-30T01:15:56.897Z,29.02
2023-04-30T01:18:33.675Z,28.69
2023-04-30T01:21:07.060Z,28.67
2023-04-30T01:24:02.361Z,27.95
2023-04-30T01:27:02.236Z,28.39
2023-04-30T01:29:29.890Z,27.52
2023-04-30T01:31:57.278Z,26.95
2023-04-30T01:34:24.796Z,27.04
2023-04-30T01:37:22.656Z,26.12
2023-04-30T01:40:02.230Z,25.57
2023-04-30T01:42:40.224Z,25.19
2023-04-30T01:45:11.990Z,25.09
2023-04-30T01:48:02.160Z,24.28
2023-04-30T01:50:38.733Z,23.36
2023-04-30T01:53:07.252Z,23.36
2023-04-30T01:55:46.173Z,22.16
2023-04-30T01:58:13.688Z,21.18
2023-04-30T02:00:41.228Z,21.19
2023-04-30T02:03:08.761Z,20.90
2023-04-30T02:05:36.285Z,21.10
2023-04-30T02:08:03.818Z,20.56
2023-04-30T02:10:31.354Z,19.02
2023-04-30T02:12:58.566Z,19.61
2023-04-30T02:15:27.318Z,18.89
2023-04-30T02:17:55.153Z,17.92
2023-04-30T02:20:22.347Z,17.68
2023-04-30T02:22:50.042Z,16.68
2023-04-30T02:25:17.254Z,15.77
2023-04-30T02:27:44.649Z,16.57
2023-04-30T02:30:11.769Z,16.64
2023-04-30T02:32:40.614Z,16.13
2023-04-30T02:35:08.345Z,16.46
2023-04-30T02:37:35.385Z,16.23
2023-04-30T02:40:02.492Z,16.20
2023-04-30T02:42:30.049Z,15.71
2023-04-30T02:44:57.833Z,15.83
2023-04-30T02:47:25.189Z,15.71
2023-04-30T02:49:52.461Z,15.88
2023-04-30T02:52:20.490Z,15.97
2023-04-30T02:54:47.854Z,15.82
2023-04-30T02:57:15.397Z,16.05
2023-04-30T02:59:45.504Z,15.92
2023-04-30T03:02:13.350Z,16.38
2023-04-30T03:04:41.406Z,15.86
2023-04-30T03:07:09.095Z,16.14
2023-04-30T03:09:36.562Z,16.39
2023-04-30T03:12:03.747Z,16.00
2023-04-30T03:14:31.162Z,16.20
2023-04-30T03:16:58.352Z,16.24
2023-04-30T03:19:25.722Z,15.81
2023-04-30T03:21:52.787Z,15.31
2023-04-30T03:24:20.343Z,14.76
2023-04-30T03:26:47.401Z,14.23
2023-04-30T03:29:14.468Z,13.82
2023-04-30T03:31:42.548Z,13.28
2023-04-30T03:34:09.879Z,12.87
2023-04-30T03:36:37.423Z,12.48
2023-04-30T03:39:04.529Z,12.24
2023-04-30T03:41:31.918Z,12.55
2023-04-30T03:43:58.991Z,12.69
2023-04-30T03:46:26.811Z,13.22
2023-04-30T03:48:54.386Z,13.12
2023-04-30T03:51:21.553Z,13.18
2023-04-30T03:53:49.041Z,13.58
2023-04-30T03:56:16.198Z,13.64
2023-04-30T03:58:43.801Z,13.70
2023-04-30T04:01:10.929Z,13.66
2023-04-30T04:03:38.524Z,13.24
2023-04-30T04:06:06.187Z,13.58
2023-04-30T04:08:33.778Z,13.65
2023-04-30T04:11:01.150Z,13.41
2023-04-30T04:13:28.270Z,14.25
2023-04-30T04:15:55.933Z,14.39
2023-04-30T04:18:23.438Z,14.11
2023-04-30T04:20:50.563Z,13.47
2023-04-30T04:23:18.092Z,13.22
2023-04-30T04:25:46.418Z,12.47
2023-04-30T04:28:14.197Z,12.77
2023-04-30T04:30:41.641Z,13.02
2023-04-30T04:33:09.141Z,13.40
2023-04-30T04:35:36.448Z,13.62
2023-04-30T04:38:04.280Z,13.65
2023-04-30T04:40:32.811Z,13.67
2023-04-30T04:43:01.103Z,14.24
2023-04-30T04:45:28.381Z,14.70
2023-04-30T04:47:56.424Z,15.23
2023-04-30T04:50:24.189Z,15.36
2023-04-30T04:52:51.250Z,15.81
2023-04-30T04:55:18.716Z,15.85
2023-04-30T04:57:46.459Z,15.63
2023-04-30T05:00:13.893Z,15.94
2023-04-30T05:02:41.961Z,15.87
2023-04-30T05:05:10.785Z,15.67
2023-04-30T05:07:37.839Z,15.41
2023-04-30T05:10:05.620Z,15.16
2023-04-30T05:12:32.937Z,15.10
2023-04-30T05:15:00.293Z,15.24
2023-04-30T05:17:27.885Z,15.04
2023-04-30T05:19:55.480Z,14.43
2023-04-30T05:22:23.489Z,14.34
2023-04-30T05:24:52.652Z,14.59
2023-04-30T05:27:19.978Z,14.16
2023-04-30T05:29:47.236Z,14.17
2023-04-30T05:32:14.499Z,15.62
2023-04-30T05:34:41.903Z,15.37
2023-04-30T05:37:09.311Z,15.69
2023-04-30T05:39:36.615Z,16.33
2023-04-30T05:42:03.763Z,16.19
2023-04-30T05:44:31.018Z,15.74
2023-04-30T05:46:57.925Z,15.87
2023-04-30T05:49:25.267Z,16.21
2023-04-30T05:51:52.372Z,16.78
2023-04-30T05:54:19.750Z,16.77
2023-04-30T05:56:47.521Z,17.13
2023-04-30T05:59:14.582Z,17.13
2023-04-30T06:01:42.124Z,17.52
2023-04-30T06:04:09.591Z,17.98
2023-04-30T06:06:36.777Z,18.10
2023-04-30T06:09:04.249Z,18.11
2023-04-30T06:11:31.298Z,18.61
2023-04-30T06:13:58.671Z,18.78
2023-04-30T06:16:26.115Z,18.61
2023-04-30T06:18:54.157Z,18.76
2023-04-30T06:21:21.603Z,19.04
2023-04-30T06:23:48.953Z,19.85
2023-04-30T06:26:15.996Z,20.45
2023-04-30T06:28:43.530Z,21.09
2023-04-30T06:31:11.038Z,21.61
2023-04-30T06:33:38.090Z,21.91
2023-04-30T06:36:06.140Z,21.89
2023-04-30T06:38:33.477Z,22.34
2023-04-30T06:41:00.750Z,22.07
2023-04-30T06:43:27.766Z,22.14
2023-04-30T06:45:55.076Z,21.64
2023-04-30T06:48:22.984Z,21.23
2023-04-30T06:50:50.101Z,21.07
2023-04-30T06:53:17.354Z,21.12
2023-04-30T06:55:46.803Z,20.73
2023-04-30T06:58:14.198Z,20.73
2023-04-30T07:00:41.210Z,20.73
2023-04-30T07:03:08.921Z,20.16
2023-04-30T07:05:36.707Z,20.17
2023-04-30T07:08:04.614Z,20.53
2023-04-30T07:10:31.959Z,20.47
2023-04-30T07:12:59.113Z,20.88
2023-04-30T07:15:26.533Z,20.35
2023-04-30T07:17:53.944Z,20.23
2023-04-30T07:20:21.305Z,20.44
2023-04-30T07:22:48.604Z,20.27
2023-04-30T07:25:16.047Z,20.10
2023-04-30T07:27:43.121Z,20.34
2023-04-30T07:30:10.312Z,20.42
2023-04-30T07:32:38.139Z,20.46
2023-04-30T07:35:06.040Z,20.23
2023-04-30T07:37:35.244Z,21.63
2023-04-30T07:40:04.079Z,22.06
2023-04-30T07:42:31.379Z,22.00
2023-04-30T07:44:59.009Z,22.36
2023-04-30T07:47:26.592Z,22.12
2023-04-30T07:49:54.149Z,22.72
2023-04-30T07:52:21.316Z,21.91
2023-04-30T07:54:48.976Z,22.36
2023-04-30T07:57:15.930Z,23.05
2023-04-30T07:59:42.992Z,22.86
2023-04-30T08:02:10.380Z,22.71
2023-04-30T08:04:37.966Z,23.01
2023-04-30T08:07:05.044Z,23.45
2023-04-30T08:09:32.730Z,22.82
2023-04-30T08:12:01.650Z,22.39
2023-04-30T08:14:29.220Z,22.49
2023-04-30T08:16:58.202Z,22.34
2023-04-30T08:19:25.545Z,22.02
2023-04-30T08:21:53.008Z,22.40
2023-04-30T08:24:20.053Z,22.15
2023-04-30T08:26:47.530Z,22.73
2023-04-30T08:29:14.911Z,23.03
2023-04-30T08:31:42.320Z,23.17
2023-04-30T08:34:09.747Z,23.18
2023-04-30T08:36:37.090Z,22.74
2023-04-30T08:39:04.276Z,22.99
2023-04-30T08:41:33.972Z,22.32
2023-04-30T08:44:05.777Z,22.33
2023-04-30T08:46:35.372Z,22.72
2023-04-30T08:49:02.694Z,22.65
2023-04-30T08:51:31.876Z,22.21
2023-04-30T08:53:59.218Z,22.30
2023-04-30T08:56:26.460Z,22.34
2023-04-30T08:58:53.845Z,22.12
2023-04-30T09:01:20.962Z,22.13
2023-04-30T09:03:48.654Z,22.00
2023-04-30T09:06:17.057Z,22.14
2023-04-30T09:08:49.517Z,21.95
2023-04-30T09:11:30.507Z,21.92
2023-04-30T09:13:59.163Z,22.87
2023-04-30T09:16:27.902Z,23.06
2023-04-30T09:18:56.316Z,24.07
2023-04-30T09:21:36.496Z,24.57
2023-04-30T09:24:04.777Z,24.64
2023-04-30T09:26:37.402Z,25.16
2023-04-30T09:29:08.089Z,24.85
2023-04-30T09:31:36.159Z,24.92
2023-04-30T09:34:03.932Z,24.86
2023-04-30T09:36:31.489Z,25.01
2023-04-30T09:39:15.252Z,25.00
2023-04-30T09:41:43.671Z,26.11
2023-04-30T09:44:30.168Z,25.93
2023-04-30T09:46:58.331Z,26.28
2023-04-30T09:49:26.504Z,25.53
2023-04-30T09:51:55.683Z,25.74
2023-04-30T09:54:30.388Z,25.79
2023-04-30T09:56:59.190Z,25.98
2023-04-30T09:59:35.345Z,26.17
2023-04-30T10:02:04.669Z,26.11
2023-04-30T10:04:37.346Z,25.51
2023-04-30T10:07:08.772Z,26.17
2023-04-30T10:09:41.070Z,25.59
2023-04-30T10:12:20.778Z,26.64
2023-04-30T10:14:52.769Z,25.86
2023-04-30T10:17:19.801Z,24.82
2023-04-30T10:19:48.820Z,24.80
2023-04-30T10:22:16.160Z,24.14
2023-04-30T10:24:44.630Z,24.03
2023-04-30T10:27:11.735Z,24.08
2023-04-30T10:29:39.079Z,23.96
2023-04-30T10:32:06.828Z,24.07
2023-04-30T10:35:14.437Z,23.18
2023-04-30T10:37:51.216Z,24.60
2023-04-30T10:40:19.194Z,23.80
2023-04-30T10:42:48.162Z,23.80
2023-04-30T10:45:20.464Z,24.64
2023-04-30T10:47:47.723Z,24.59
2023-04-30T10:50:15.166Z,25.17
2023-04-30T10:52:44.048Z,25.52
2023-04-30T10:55:11.400Z,26.22
2023-04-30T10:57:46.713Z,26.74
2023-04-30T11:00:20.524Z,27.92
2023-04-30T11:02:48.811Z,27.72
2023-04-30T11:05:18.084Z,27.81
2023-04-30T11:07:56.087Z,28.33
2023-04-30T11:10:25.349Z,28.23
2023-04-30T11:12:54.632Z,28.41
2023-04-30T11:15:25.325Z,27.62
2023-04-30T11:17:56.501Z,26.22
2023-04-30T11:20:24.159Z,25.33
2023-04-30T11:23:19.690Z,25.70
2023-04-30T11:25:54.568Z,24.89
2023-04-30T11:28:26.723Z,24.42
2023-04-30T11:30:55.444Z,25.48
2023-04-30T11:33:27.348Z,24.64
2023-04-30T11:35:55.881Z,24.17
2023-04-30T11:38:31.980Z,24.41
2023-04-30T11:41:00.163Z,24.41
2023-04-30T11:43:34.182Z,24.47
2023-04-30T11:46:04.097Z,24.14
2023-04-30T11:48:35.677Z,24.71
2023-04-30T11:51:04.587Z,24.54
2023-04-30T11:53:32.000Z,24.36
2023-04-30T11:56:03.496Z,24.52
2023-04-30T11:58:37.772Z,24.24
2023-04-30T12:01:10.034Z,24.58
2023-04-30T12:03:48.071Z,24.71
2023-04-30T12:06:26.450Z,24.41
2023-04-30T12:08:57.293Z,23.74
2023-04-30T12:11:26.473Z,24.13
2023-04-30T12:13:55.353Z,23.77
2023-04-30T12:16:28.622Z,24.10
2023-04-30T12:18:56.067Z,24.20
2023-04-30T12:21:23.240Z,24.13
2023-04-30T12:23:50.881Z,24.13
2023-04-30T12:26:18.077Z,24.20
2023-04-30T12:28:48.343Z,24.36
2023-04-30T12:31:19.312Z,24.17
2023-04-30T12:33:54.662Z,24.26
2023-04-30T12:36:21.756Z,23.76
2023-04-30T12:38:48.936Z,23.33
2023-04-30T12:41:17.246Z,23.15
2023-04-30T12:43:44.698Z,21.81
2023-04-30T12:46:12.041Z,21.12
2023-04-30T12:48:45.693Z,21.23
2023-04-30T12:51:13.097Z,20.44
2023-04-30T12:53:49.522Z,20.20
2023-04-30T12:56:17.122Z,20.59
2023-04-30T12:58:49.384Z,20.82
2023-04-30T13:01:24.233Z,21.78
2023-04-30T13:03:52.829Z,22.21
2023-04-30T13:06:22.577Z,22.80
2023-04-30T13:08:58.484Z,24.05
2023-04-30T13:11:27.158Z,25.17
2023-04-30T13:13:57.551Z,25.67
2023-04-30T13:16:25.432Z,26.46
2023-04-30T13:18:53.196Z,26.96
2023-04-30T13:21:21.218Z,26.77
2023-04-30T13:23:52.986Z,27.09
2023-04-30T13:26:23.316Z,27.93
2023-04-30T13:28:51.199Z,27.73
2023-04-30T13:31:18.523Z,28.03
2023-04-30T13:33:46.104Z,28.29
2023-04-30T13:36:13.183Z,27.97
2023-04-30T13:38:41.367Z,27.97
2023-04-30T13:41:09.100Z,28.41
2023-04-30T13:43:39.653Z,28.69
2023-04-30T13:46:09.331Z,28.34
2023-04-30T13:48:36.823Z,28.33
2023-04-30T13:51:04.209Z,29.30
2023-04-30T13:53:31.328Z,29.27
2023-04-30T13:55:59.325Z,29.24
2023-04-30T13:58:26.460Z,28.80
2023-04-30T14:00:53.704Z,28.99
2023-04-30T14:03:20.893Z,28.86
2023-04-30T14:05:47.946Z,28.89
2023-04-30T14:08:15.603Z,29.57
2023-04-30T14:10:42.622Z,29.15
2023-04-30T14:13:09.956Z,29.65
2023-04-30T14:15:38.280Z,29.45
2023-04-30T14:18:05.461Z,29.66
2023-04-30T14:20:32.711Z,29.69
2023-04-30T14:23:02.091Z,30.31
2023-04-30T14:25:30.019Z,29.56
2023-04-30T14:27:57.440Z,30.01
2023-04-30T14:30:25.005Z,30.13
2023-04-30T14:32:52.314Z,29.57
2023-04-30T14:35:19.834Z,30.10
2023-04-30T14:37:47.157Z,30.19
2023-04-30T14:40:15.228Z,30.07
2023-04-30T14:42:42.661Z,30.35
2023-04-30T14:45:10.242Z,30.23
2023-04-30T14:47:38.013Z,29.91
2023-04-30T14:50:05.469Z,30.23
2023-04-30T14:52:32.593Z,30.69
2023-04-30T14:55:00.007Z,31.15
2023-04-30T14:57:27.803Z,31.81
2023-04-30T14:59:57.393Z,31.79
2023-04-30T15:02:24.626Z,32.13
2023-04-30T15:04:52.062Z,32.56
2023-04-30T15:07:20.437Z,32.75
2023-04-30T15:09:48.014Z,32.58
2023-04-30T15:12:15.446Z,32.18
2023-04-30T15:14:42.693Z,32.60
2023-04-30T15:17:11.187Z,33.20
2023-04-30T15:19:38.259Z,33.37
2023-04-30T15:22:06.650Z,33.64
2023-04-30T15:24:34.253Z,34.09
2023-04-30T15:27:01.902Z,34.29
2023-04-30T15:29:29.393Z,34.36
2023-04-30T15:31:56.800Z,33.86
2023-04-30T15:34:24.088Z,34.43
2023-04-30T15:36:51.200Z,33.84
2023-04-30T15:39:18.874Z,34.04
2023-04-30T15:41:46.262Z,34.44
2023-04-30T15:44:13.367Z,35.02
2023-04-30T15:46:41.263Z,34.91
2023-04-30T15:49:08.698Z,35.76
2023-04-30T15:51:36.681Z,35.28
2023-04-30T15:54:06.027Z,35.86
2023-04-30T15:56:36.495Z,36.20
2023-04-30T15:59:04.576Z,37.17
2023-04-30T16:01:31.919Z,37.25
2023-04-30T16:04:00.096Z,37.32
2023-04-30T16:06:28.859Z,37.51
2023-04-30T16:08:56.249Z,38.10
2023-04-30T16:11:23.886Z,37.59
2023-04-30T16:13:51.764Z,37.96
2023-04-30T16:16:18.979Z,37.61
2023-04-30T16:18:46.348Z,38.01
2023-04-30T16:21:13.363Z,38.58
2023-04-30T16:23:40.408Z,38.76
2023-04-30T16:26:07.682Z,38.62
2023-04-30T16:28:35.367Z,39.18
2023-04-30T16:31:03.076Z,39.27
2023-04-30T16:33:30.754Z,39.58
2023-04-30T16:35:58.130Z,39.72
2023-04-30T16:38:25.469Z,39.73
2023-04-30T16:40:52.510Z,40.18
2023-04-30T16:43:19.474Z,39.92
2023-04-30T16:45:46.808Z,40.30
2023-04-30T16:48:14.298Z,40.03
2023-04-30T16:50:41.761Z,40.15
2023-04-30T16:53:10.831Z,40.41
2023-04-30T16:55:38.577Z,40.33
2023-04-30T16:58:05.847Z,39.78
2023-04-30T17:00:33.150Z,40.13
2023-04-30T17:03:00.800Z,40.50
2023-04-30T17:05:28.010Z,39.80
2023-04-30T17:07:55.847Z,39.63
2023-04-30T17:10:22.808Z,40.33
2023-04-30T17:12:50.633Z,39.99
2023-04-30T17:15:19.927Z,40.50
2023-04-30T17:17:47.145Z,40.89
2023-04-30T17:20:14.400Z,40.91
2023-04-30T17:22:42.128Z,41.23
2023-04-30T17:25:10.029Z,41.39
2023-04-30T17:27:37.387Z,41.28
2023-04-30T17:30:05.048Z,41.43
2023-04-30T17:32:32.575Z,41.77
2023-04-30T17:35:01.639Z,42.10
2023-04-30T17:37:28.790Z,42.15
2023-04-30T17:39:56.607Z,42.32
2023-04-30T17:42:24.130Z,42.20
2023-04-30T17:44:51.516Z,42.37
2023-04-30T17:47:18.919Z,42.83
2023-04-30T17:49:46.139Z,42.42
2023-04-30T17:52:14.100Z,42.59
2023-04-30T17:54:41.208Z,42.76
2023-04-30T17:57:08.562Z,42.80
2023-04-30T17:59:35.620Z,43.08
2023-04-30T18:02:05.538Z,42.65
2023-04-30T18:04:32.715Z,42.59
2023-04-30T18:06:59.825Z,42.82
2023-04-30T18:09:26.799Z,42.80
2023-04-30T18:11:54.236Z,42.83
2023-04-30T18:14:21.527Z,42.97
2023-04-30T18:16:49.490Z,43.16
2023-04-30T18:19:17.838Z,43.17
2023-04-30T18:21:45.091Z,42.97
2023-04-30T18:24:12.448Z,43.54
2023-04-30T18:26:40.129Z,43.26
2023-04-30T18:29:07.625Z,43.41
2023-04-30T18:31:36.576Z,43.37
2023-04-30T18:34:03.848Z,42.95
2023-04-30T18:36:30.950Z,42.85
2023-04-30T18:38:58.380Z,42.85
2023-04-30T18:41:26.754Z,42.99
2023-04-30T18:43:54.440Z,43.02
2023-04-30T18:46:23.135Z,42.92
2023-04-30T18:48:50.304Z,43.31
2023-04-30T18:51:17.911Z,43.87
2023-04-30T18:53:47.360Z,43.98
2023-04-30T18:56:15.475Z,44.39
2023-04-30T18:58:46.432Z,44.73
2023-04-30T19:01:14.025Z,44.70
2023-04-30T19:03:41.784Z,44.91
2023-04-30T19:06:09.458Z,44.89
2023-04-30T19:08:37.196Z,44.50
2023-04-30T19:11:04.475Z,44.40
2023-04-30T19:13:31.792Z,43.83
2023-04-30T19:16:02.297Z,44.39
2023-04-30T19:18:29.337Z,44.31
2023-04-30T19:20:56.826Z,44.68
2023-04-30T19:23:24.874Z,44.39
2023-04-30T19:25:52.186Z,44.34
2023-04-30T19:28:19.620Z,44.52
2023-04-30T19:30:47.041Z,44.43
2023-04-30T19:33:14.695Z,44.86
2023-04-30T19:35:42.287Z,44.56
2023-04-30T19:38:09.560Z,44.33
2023-04-30T19:40:36.858Z,44.45
2023-04-30T19:43:04.324Z,44.78
2023-04-30T19:45:31.439Z,44.91
2023-04-30T19:47:58.791Z,44.76
2023-04-30T19:50:25.933Z,44.96
2023-04-30T19:52:53.210Z,45.05
2023-04-30T19:55:21.034Z,45.16
2023-04-30T19:57:48.291Z,44.92
2023-04-30T20:00:16.136Z,44.97
2023-04-30T20:02:43.351Z,45.10
2023-04-30T20:05:11.711Z,45.23
2023-04-30T20:07:38.821Z,45.43
2023-04-30T20:10:09.278Z,45.60
2023-04-30T20:12:36.287Z,45.71
2023-04-30T20:15:03.670Z,45.74
2023-04-30T20:17:33.924Z,45.96
2023-04-30T20:20:01.812Z,46.12
2023-04-30T20:22:29.383Z,46.30
2023-04-30T20:24:56.629Z,46.49
2023-04-30T20:27:25.334Z,46.35
2023-04-30T20:29:52.473Z,45.95
2023-04-30T20:32:19.711Z,45.86
2023-04-30T20:34:46.713Z,46.23
2023-04-30T20:37:13.729Z,46.33
2023-04-30T20:39:41.428Z,46.45
2023-04-30T20:42:08.989Z,46.92
2023-04-30T20:44:36.123Z,47.20
2023-04-30T20:47:05.061Z,47.40
2023-04-30T20:49:32.539Z,47.40
2023-04-30T20:51:59.612Z,47.09
2023-04-30T20:54:26.873Z,47.20
2023-04-30T20:56:54.601Z,46.62
2023-04-30T20:59:21.833Z,46.51
2023-04-30T21:01:48.864Z,46.78
2023-04-30T21:04:16.472Z,46.75
2023-04-30T21:06:44.019Z,46.80
2023-04-30T21:09:12.143Z,46.38
2023-04-30T21:11:39.204Z,46.19
2023-04-30T21:14:06.553Z,45.98
2023-04-30T21:16:33.611Z,45.64
2023-04-30T21:19:01.262Z,45.65
2023-04-30T21:21:28.844Z,45.70
2023-04-30T21:23:56.501Z,45.26
2023-04-30T21:26:24.165Z,44.62
2023-04-30T21:28:52.251Z,44.59
2023-04-30T21:31:19.739Z,44.56
2023-04-30T21:33:47.847Z,44.43
2023-04-30T21:36:16.327Z,43.82
2023-04-30T21:38:43.754Z,43.36
2023-04-30T21:41:15.377Z,43.36
2023-04-30T21:43:43.061Z,43.83
2023-04-30T21:46:10.864Z,43.89
2023-04-30T21:48:38.426Z,43.68
2023-04-30T21:51:16.560Z,43.84
2023-04-30T21:53:47.225Z,43.50
2023-04-30T21:56:15.976Z,43.36
2023-04-30T21:58:43.425Z,43.01
2023-04-30T22:01:10.645Z,43.02
2023-04-30T22:03:37.926Z,42.63
2023-04-30T22:06:05.797Z,42.14
2023-04-30T22:08:33.337Z,42.07
2023-04-30T22:11:00.602Z,41.60
2023-04-30T22:13:28.391Z,41.09
2023-04-30T22:15:55.855Z,41.32
2023-04-30T22:18:23.968Z,41.32
2023-04-30T22:20:52.081Z,41.29
2023-04-30T22:23:20.782Z,40.90
2023-04-30T22:25:47.906Z,40.43
2023-04-30T22:28:19.026Z,40.39
2023-04-30T22:30:46.460Z,40.50
2023-04-30T22:33:14.298Z,41.09
2023-04-30T22:35:41.831Z,41.17
2023-04-30T22:38:10.990Z,41.46
2023-04-30T22:40:41.583Z,41.50
2023-04-30T22:43:09.237Z,41.38
2023-04-30T22:45:38.015Z,41.31
2023-04-30T22:48:06.169Z,41.42
2023-04-30T22:50:33.480Z,41.43
2023-04-30T22:53:01.148Z,41.21
2023-04-30T22:55:29.145Z,41.33
2023-04-30T22:57:59.367Z,41.55
2023-04-30T23:00:27.518Z,41.76
2023-04-30T23:02:54.710Z,41.71
2023-04-30T23:05:21.742Z,41.71
2023-04-30T23:07:49.164Z,41.40
2023-04-30T23:10:16.978Z,41.83
2023-04-30T23:12:43.926Z,41.37
2023-04-30T23:15:11.959Z,41.70
2023-04-30T23:17:39.344Z,41.75
2023-04-30T23:20:07.919Z,41.71
2023-04-30T23:22:35.463Z,41.42
2023-04-30T23:25:02.639Z,41.78
2023-04-30T23:27:30.628Z,42.20
2023-04-30T23:29:57.976Z,41.95
2023-04-30T23:32:25.889Z,41.85
2023-04-30T23:34:53.410Z,41.93
2023-04-30T23:37:20.957Z,41.63
2023-04-30T23:39:48.031Z,41.18
2023-04-30T23:42:15.410Z,40.57
2023-04-30T23:44:42.621Z,40.43
2023-04-30T23:47:10.130Z,39.74
2023-04-30T23:49:37.513Z,39.48
2023-04-30T23:52:04.911Z,39.32
2023-04-30T23:54:32.824Z,38.75
2023-04-30T23:57:00.430Z,38.34
2023-04-30T23:59:28.124Z,38.75
